sensor_id;sensor_type;location;lat;lon;timestamp;P1;durP1;ratioP1;P2;durP2;ratioP2
22490;SDS011;11412;50.802;4.350;2023-07-09T00:00:15;4.85;;;3.58;;
22490;SDS011;11412;50.802;4.350;2023-07-09T00:02:44;6.38;;;3.70;;
22490;SDS011;11412;50.802;4.350;2023-07-09T00:05:14;4.97;;;4.57;;
22490;SDS011;11412;50.802;4.350;2023-07-09T00:07:41;4.95;;;4.05;;
22490;SDS011;11412;50.802;4.350;2023-07-09T00:10:18;5.97;;;4.50;;
22490;SDS011;11412;50.802;4.350;2023-07-09T00:12:45;5.10;;;3.85;;
22490;SDS011;11412;50.802;4.350;2023-07-09T00:15:12;5.15;;;4.47;;
22490;SDS011;11412;50.802;4.350;2023-07-09T00:17:41;6.65;;;4.82;;
22490;SDS011;11412;50.802;4.350;2023-07-09T00:20:10;6.60;;;4.00;;
22490;SDS011;11412;50.802;4.350;2023-07-09T00:22:42;4.80;;;4.40;;
22490;SDS011;11412;50.802;4.350;2023-07-09T00:25:13;6.22;;;4.60;;
22490;SDS011;11412;50.802;4.350;2023-07-09T00:27:41;6.18;;;5.07;;
22490;SDS011;11412;50.802;4.350;2023-07-09T00:30:15;5.38;;;4.88;;
22490;SDS011;11412;50.802;4.350;2023-07-09T00:32:43;4.88;;;4.45;;
22490;SDS011;11412;50.802;4.350;2023-07-09T00:35:10;6.03;;;4.78;;
22490;SDS011;11412;50.802;4.350;2023-07-09T00:37:40;5.43;;;4.80;;
22490;SDS011;11412;50.802;4.350;2023-07-09T00:40:18;7.78;;;5.07;;
22490;SDS011;11412;50.802;4.350;2023-07-09T00:42:50;5.10;;;4.60;;
22490;SDS011;11412;50.802;4.350;2023-07-09T00:45:24;6.57;;;4.78;;
22490;SDS011;11412;50.802;4.350;2023-07-09T00:53:01;6.88;;;4.97;;
22490;SDS011;11412;50.802;4.350;2023-07-09T00:55:50;5.63;;;5.13;;
22490;SDS011;11412;50.802;4.350;2023-07-09T00:58:22;10.75;;;5.50;;
22490;SDS011;11412;50.802;4.350;2023-07-09T01:00:53;6.75;;;4.97;;
22490;SDS011;11412;50.802;4.350;2023-07-09T01:03:29;7.30;;;5.03;;
22490;SDS011;11412;50.802;4.350;2023-07-09T01:08:25;7.60;;;4.85;;
22490;SDS011;11412;50.802;4.350;2023-07-09T01:10:55;5.28;;;4.78;;
22490;SDS011;11412;50.802;4.350;2023-07-09T01:13:21;12.48;;;5.00;;
22490;SDS011;11412;50.802;4.350;2023-07-09T01:15:47;6.93;;;4.90;;
22490;SDS011;11412;50.802;4.350;2023-07-09T01:18:13;4.70;;;4.30;;
22490;SDS011;11412;50.802;4.350;2023-07-09T01:20:40;5.38;;;4.43;;
22490;SDS011;11412;50.802;4.350;2023-07-09T01:23:06;5.97;;;4.20;;
22490;SDS011;11412;50.802;4.350;2023-07-09T01:25:33;4.72;;;4.32;;
22490;SDS011;11412;50.802;4.350;2023-07-09T01:28:01;5.45;;;4.53;;
22490;SDS011;11412;50.802;4.350;2023-07-09T01:30:35;6.13;;;4.05;;
22490;SDS011;11412;50.802;4.350;2023-07-09T01:33:02;8.50;;;4.25;;
22490;SDS011;11412;50.802;4.350;2023-07-09T01:35:29;5.55;;;4.18;;
22490;SDS011;11412;50.802;4.350;2023-07-09T01:37:57;7.72;;;4.13;;
22490;SDS011;11412;50.802;4.350;2023-07-09T01:40:24;6.30;;;3.83;;
22490;SDS011;11412;50.802;4.350;2023-07-09T01:42:52;4.07;;;3.72;;
22490;SDS011;11412;50.802;4.350;2023-07-09T01:45:20;5.97;;;3.58;;
22490;SDS011;11412;50.802;4.350;2023-07-09T01:47:46;4.65;;;3.60;;
22490;SDS011;11412;50.802;4.350;2023-07-09T01:50:12;5.22;;;3.72;;
22490;SDS011;11412;50.802;4.350;2023-07-09T01:52:40;3.47;;;3.17;;
22490;SDS011;11412;50.802;4.350;2023-07-09T01:55:10;4.82;;;3.75;;
22490;SDS011;11412;50.802;4.350;2023-07-09T01:57:37;6.47;;;4.20;;
22490;SDS011;11412;50.802;4.350;2023-07-09T02:00:04;8.93;;;3.83;;
22490;SDS011;11412;50.802;4.350;2023-07-09T02:02:35;4.63;;;3.72;;
22490;SDS011;11412;50.802;4.350;2023-07-09T02:05:04;3.97;;;3.65;;
22490;SDS011;11412;50.802;4.350;2023-07-09T02:07:30;8.68;;;4.53;;
22490;SDS011;11412;50.802;4.350;2023-07-09T02:09:57;4.75;;;3.55;;
22490;SDS011;11412;50.802;4.350;2023-07-09T02:12:23;4.82;;;3.85;;
22490;SDS011;11412;50.802;4.350;2023-07-09T02:14:49;4.30;;;3.50;;
22490;SDS011;11412;50.802;4.350;2023-07-09T02:17:15;5.68;;;3.58;;
22490;SDS011;11412;50.802;4.350;2023-07-09T02:19:41;7.95;;;3.90;;
22490;SDS011;11412;50.802;4.350;2023-07-09T02:22:07;7.20;;;3.65;;
22490;SDS011;11412;50.802;4.350;2023-07-09T02:24:33;5.13;;;3.72;;
22490;SDS011;11412;50.802;4.350;2023-07-09T02:27:00;4.82;;;3.70;;
22490;SDS011;11412;50.802;4.350;2023-07-09T02:29:28;5.60;;;3.17;;
22490;SDS011;11412;50.802;4.350;2023-07-09T02:31:56;3.58;;;3.17;;
22490;SDS011;11412;50.802;4.350;2023-07-09T02:34:24;5.90;;;3.60;;
22490;SDS011;11412;50.802;4.350;2023-07-09T02:36:53;5.85;;;3.95;;
22490;SDS011;11412;50.802;4.350;2023-07-09T02:39:20;4.10;;;3.80;;
22490;SDS011;11412;50.802;4.350;2023-07-09T02:41:47;5.68;;;3.53;;
22490;SDS011;11412;50.802;4.350;2023-07-09T02:44:13;5.25;;;3.70;;
22490;SDS011;11412;50.802;4.350;2023-07-09T02:46:39;4.35;;;3.45;;
22490;SDS011;11412;50.802;4.350;2023-07-09T02:49:05;7.05;;;3.83;;
22490;SDS011;11412;50.802;4.350;2023-07-09T02:51:32;4.13;;;3.55;;
22490;SDS011;11412;50.802;4.350;2023-07-09T02:53:59;7.65;;;3.65;;
22490;SDS011;11412;50.802;4.350;2023-07-09T02:56:26;4.22;;;3.70;;
22490;SDS011;11412;50.802;4.350;2023-07-09T02:58:52;5.68;;;4.15;;
22490;SDS011;11412;50.802;4.350;2023-07-09T03:01:18;5.15;;;3.80;;
22490;SDS011;11412;50.802;4.350;2023-07-09T03:03:47;5.30;;;3.78;;
22490;SDS011;11412;50.802;4.350;2023-07-09T03:06:12;4.47;;;3.90;;
22490;SDS011;11412;50.802;4.350;2023-07-09T03:08:38;5.63;;;3.70;;
22490;SDS011;11412;50.802;4.350;2023-07-09T03:11:10;7.88;;;3.38;;
22490;SDS011;11412;50.802;4.350;2023-07-09T03:13:37;7.73;;;3.53;;
22490;SDS011;11412;50.802;4.350;2023-07-09T03:16:03;4.95;;;3.72;;
22490;SDS011;11412;50.802;4.350;2023-07-09T03:18:30;5.95;;;4.00;;
22490;SDS011;11412;50.802;4.350;2023-07-09T03:20:56;4.70;;;3.88;;
22490;SDS011;11412;50.802;4.350;2023-07-09T03:23:21;4.38;;;3.50;;
22490;SDS011;11412;50.802;4.350;2023-07-09T03:25:47;7.03;;;3.53;;
22490;SDS011;11412;50.802;4.350;2023-07-09T03:28:13;4.70;;;3.88;;
22490;SDS011;11412;50.802;4.350;2023-07-09T03:30:42;7.07;;;3.67;;
22490;SDS011;11412;50.802;4.350;2023-07-09T03:33:12;7.00;;;3.53;;
22490;SDS011;11412;50.802;4.350;2023-07-09T03:35:40;8.05;;;3.78;;
22490;SDS011;11412;50.802;4.350;2023-07-09T03:38:06;5.63;;;4.30;;
22490;SDS011;11412;50.802;4.350;2023-07-09T03:40:33;5.03;;;4.15;;
22490;SDS011;11412;50.802;4.350;2023-07-09T03:42:59;3.65;;;3.35;;
22490;SDS011;11412;50.802;4.350;2023-07-09T03:45:25;5.05;;;4.10;;
22490;SDS011;11412;50.802;4.350;2023-07-09T03:47:51;5.00;;;4.32;;
22490;SDS011;11412;50.802;4.350;2023-07-09T03:50:17;4.00;;;3.60;;
22490;SDS011;11412;50.802;4.350;2023-07-09T03:52:43;5.22;;;3.70;;
22490;SDS011;11412;50.802;4.350;2023-07-09T03:55:09;6.20;;;4.20;;
22490;SDS011;11412;50.802;4.350;2023-07-09T03:57:35;5.93;;;4.28;;
22490;SDS011;11412;50.802;4.350;2023-07-09T04:00:01;7.25;;;4.47;;
22490;SDS011;11412;50.802;4.350;2023-07-09T04:02:29;7.03;;;4.63;;
22490;SDS011;11412;50.802;4.350;2023-07-09T04:04:54;5.65;;;4.57;;
22490;SDS011;11412;50.802;4.350;2023-07-09T04:07:20;12.75;;;5.28;;
22490;SDS011;11412;50.802;4.350;2023-07-09T04:09:46;6.15;;;4.68;;
22490;SDS011;11412;50.802;4.350;2023-07-09T04:12:11;6.57;;;4.85;;
22490;SDS011;11412;50.802;4.350;2023-07-09T04:14:37;6.75;;;4.68;;
22490;SDS011;11412;50.802;4.350;2023-07-09T04:17:03;6.50;;;4.72;;
22490;SDS011;11412;50.802;4.350;2023-07-09T04:19:29;7.18;;;4.55;;
22490;SDS011;11412;50.802;4.350;2023-07-09T04:21:54;6.63;;;5.10;;
22490;SDS011;11412;50.802;4.350;2023-07-09T04:24:21;6.80;;;4.85;;
22490;SDS011;11412;50.802;4.350;2023-07-09T04:26:47;5.78;;;4.80;;
22490;SDS011;11412;50.802;4.350;2023-07-09T04:29:13;8.23;;;5.07;;
22490;SDS011;11412;50.802;4.350;2023-07-09T04:31:39;9.77;;;4.43;;
22490;SDS011;11412;50.802;4.350;2023-07-09T04:34:05;6.53;;;5.35;;
22490;SDS011;11412;50.802;4.350;2023-07-09T04:36:31;6.55;;;5.00;;
22490;SDS011;11412;50.802;4.350;2023-07-09T04:38:57;7.60;;;4.85;;
22490;SDS011;11412;50.802;4.350;2023-07-09T04:41:23;7.85;;;4.72;;
22490;SDS011;11412;50.802;4.350;2023-07-09T04:43:49;6.78;;;4.32;;
22490;SDS011;11412;50.802;4.350;2023-07-09T04:46:15;7.78;;;4.80;;
22490;SDS011;11412;50.802;4.350;2023-07-09T04:48:41;7.25;;;4.80;;
22490;SDS011;11412;50.802;4.350;2023-07-09T04:51:06;7.97;;;5.03;;
22490;SDS011;11412;50.802;4.350;2023-07-09T04:53:32;8.57;;;4.82;;
22490;SDS011;11412;50.802;4.350;2023-07-09T04:55:57;9.38;;;5.35;;
22490;SDS011;11412;50.802;4.350;2023-07-09T04:58:23;7.40;;;5.10;;
22490;SDS011;11412;50.802;4.350;2023-07-09T05:00:49;8.75;;;5.55;;
22490;SDS011;11412;50.802;4.350;2023-07-09T05:03:16;5.35;;;4.78;;
22490;SDS011;11412;50.802;4.350;2023-07-09T05:05:43;8.27;;;5.20;;
22490;SDS011;11412;50.802;4.350;2023-07-09T05:08:10;8.25;;;5.10;;
22490;SDS011;11412;50.802;4.350;2023-07-09T05:10:40;6.45;;;4.47;;
22490;SDS011;11412;50.802;4.350;2023-07-09T05:13:07;6.32;;;4.68;;
22490;SDS011;11412;50.802;4.350;2023-07-09T05:15:33;6.18;;;4.82;;
22490;SDS011;11412;50.802;4.350;2023-07-09T05:17:58;8.18;;;4.60;;
22490;SDS011;11412;50.802;4.350;2023-07-09T05:20:24;5.97;;;4.63;;
22490;SDS011;11412;50.802;4.350;2023-07-09T05:22:50;6.88;;;4.97;;
22490;SDS011;11412;50.802;4.350;2023-07-09T05:25:15;8.55;;;5.28;;
22490;SDS011;11412;50.802;4.350;2023-07-09T05:27:42;7.22;;;5.18;;
22490;SDS011;11412;50.802;4.350;2023-07-09T05:30:08;8.98;;;5.47;;
22490;SDS011;11412;50.802;4.350;2023-07-09T05:32:34;9.88;;;5.00;;
22490;SDS011;11412;50.802;4.350;2023-07-09T05:35:01;8.70;;;4.65;;
22490;SDS011;11412;50.802;4.350;2023-07-09T05:37:27;8.95;;;5.10;;
22490;SDS011;11412;50.802;4.350;2023-07-09T05:39:53;5.95;;;4.65;;
22490;SDS011;11412;50.802;4.350;2023-07-09T05:42:19;10.43;;;4.82;;
22490;SDS011;11412;50.802;4.350;2023-07-09T05:44:44;9.50;;;5.20;;
22490;SDS011;11412;50.802;4.350;2023-07-09T05:47:10;6.32;;;4.30;;
22490;SDS011;11412;50.802;4.350;2023-07-09T05:49:37;5.80;;;4.50;;
22490;SDS011;11412;50.802;4.350;2023-07-09T05:52:03;7.90;;;5.00;;
22490;SDS011;11412;50.802;4.350;2023-07-09T05:54:29;9.40;;;5.25;;
22490;SDS011;11412;50.802;4.350;2023-07-09T05:56:55;5.15;;;4.60;;
22490;SDS011;11412;50.802;4.350;2023-07-09T05:59:21;5.15;;;4.20;;
22490;SDS011;11412;50.802;4.350;2023-07-09T06:01:47;6.90;;;5.00;;
22490;SDS011;11412;50.802;4.350;2023-07-09T06:04:12;8.02;;;4.88;;
22490;SDS011;11412;50.802;4.350;2023-07-09T06:06:39;7.90;;;4.53;;
22490;SDS011;11412;50.802;4.350;2023-07-09T06:09:06;7.88;;;5.18;;
22490;SDS011;11412;50.802;4.350;2023-07-09T06:11:35;8.15;;;5.38;;
22490;SDS011;11412;50.802;4.350;2023-07-09T06:14:01;7.70;;;5.25;;
22490;SDS011;11412;50.802;4.350;2023-07-09T06:16:27;6.57;;;4.80;;
22490;SDS011;11412;50.802;4.350;2023-07-09T06:18:52;9.38;;;5.20;;
22490;SDS011;11412;50.802;4.350;2023-07-09T06:21:18;7.10;;;4.72;;
22490;SDS011;11412;50.802;4.350;2023-07-09T06:23:45;11.48;;;5.63;;
22490;SDS011;11412;50.802;4.350;2023-07-09T06:26:11;6.47;;;4.65;;
22490;SDS011;11412;50.802;4.350;2023-07-09T06:28:37;7.88;;;4.95;;
22490;SDS011;11412;50.802;4.350;2023-07-09T06:31:03;10.45;;;4.90;;
22490;SDS011;11412;50.802;4.350;2023-07-09T06:33:28;7.57;;;5.45;;
22490;SDS011;11412;50.802;4.350;2023-07-09T06:35:59;8.38;;;4.80;;
22490;SDS011;11412;50.802;4.350;2023-07-09T06:38:26;7.88;;;5.20;;
22490;SDS011;11412;50.802;4.350;2023-07-09T06:40:52;10.20;;;5.20;;
22490;SDS011;11412;50.802;4.350;2023-07-09T06:43:18;6.78;;;5.28;;
22490;SDS011;11412;50.802;4.350;2023-07-09T06:45:57;10.07;;;5.07;;
22490;SDS011;11412;50.802;4.350;2023-07-09T06:48:24;5.90;;;4.45;;
22490;SDS011;11412;50.802;4.350;2023-07-09T06:50:52;7.75;;;5.05;;
22490;SDS011;11412;50.802;4.350;2023-07-09T06:53:19;7.78;;;4.80;;
22490;SDS011;11412;50.802;4.350;2023-07-09T06:55:46;6.07;;;4.55;;
22490;SDS011;11412;50.802;4.350;2023-07-09T06:58:15;8.00;;;5.22;;
22490;SDS011;11412;50.802;4.350;2023-07-09T07:00:41;8.50;;;4.93;;
22490;SDS011;11412;50.802;4.350;2023-07-09T07:03:08;39.60;;;8.32;;
22490;SDS011;11412;50.802;4.350;2023-07-09T07:05:34;11.55;;;5.43;;
22490;SDS011;11412;50.802;4.350;2023-07-09T07:08:01;8.70;;;6.35;;
22490;SDS011;11412;50.802;4.350;2023-07-09T07:10:28;11.80;;;7.47;;
22490;SDS011;11412;50.802;4.350;2023-07-09T07:12:54;9.52;;;7.00;;
22490;SDS011;11412;50.802;4.350;2023-07-09T07:15:20;12.48;;;7.97;;
22490;SDS011;11412;50.802;4.350;2023-07-09T07:17:46;15.52;;;9.75;;
22490;SDS011;11412;50.802;4.350;2023-07-09T07:20:12;16.45;;;12.38;;
22490;SDS011;11412;50.802;4.350;2023-07-09T07:22:39;18.00;;;12.25;;
22490;SDS011;11412;50.802;4.350;2023-07-09T07:25:05;26.35;;;15.70;;
22490;SDS011;11412;50.802;4.350;2023-07-09T07:27:32;20.83;;;13.90;;
22490;SDS011;11412;50.802;4.350;2023-07-09T07:29:59;21.17;;;16.75;;
22490;SDS011;11412;50.802;4.350;2023-07-09T07:32:25;23.85;;;17.27;;
22490;SDS011;11412;50.802;4.350;2023-07-09T07:34:51;22.48;;;16.23;;
22490;SDS011;11412;50.802;4.350;2023-07-09T07:37:18;24.17;;;17.27;;
22490;SDS011;11412;50.802;4.350;2023-07-09T07:39:47;25.15;;;19.00;;
22490;SDS011;11412;50.802;4.350;2023-07-09T07:42:13;22.85;;;17.75;;
22490;SDS011;11412;50.802;4.350;2023-07-09T07:44:39;23.88;;;18.73;;
22490;SDS011;11412;50.802;4.350;2023-07-09T07:47:04;29.67;;;21.10;;
22490;SDS011;11412;50.802;4.350;2023-07-09T07:49:31;28.17;;;22.88;;
22490;SDS011;11412;50.802;4.350;2023-07-09T07:51:57;30.45;;;22.70;;
22490;SDS011;11412;50.802;4.350;2023-07-09T07:54:22;33.45;;;24.73;;
22490;SDS011;11412;50.802;4.350;2023-07-09T07:56:48;32.20;;;25.50;;
22490;SDS011;11412;50.802;4.350;2023-07-09T07:59:14;32.95;;;23.15;;
22490;SDS011;11412;50.802;4.350;2023-07-09T08:01:40;35.28;;;27.98;;
22490;SDS011;11412;50.802;4.350;2023-07-09T08:04:06;29.90;;;22.45;;
22490;SDS011;11412;50.802;4.350;2023-07-09T08:06:31;29.13;;;20.50;;
22490;SDS011;11412;50.802;4.350;2023-07-09T08:08:57;29.60;;;20.73;;
22490;SDS011;11412;50.802;4.350;2023-07-09T08:11:23;25.00;;;18.05;;
22490;SDS011;11412;50.802;4.350;2023-07-09T08:13:49;26.15;;;19.63;;
22490;SDS011;11412;50.802;4.350;2023-07-09T08:16:16;28.92;;;20.33;;
22490;SDS011;11412;50.802;4.350;2023-07-09T08:18:42;26.30;;;16.95;;
22490;SDS011;11412;50.802;4.350;2023-07-09T08:21:08;27.63;;;19.55;;
22490;SDS011;11412;50.802;4.350;2023-07-09T08:23:34;26.48;;;18.40;;
22490;SDS011;11412;50.802;4.350;2023-07-09T08:26:01;28.38;;;17.70;;
22490;SDS011;11412;50.802;4.350;2023-07-09T08:28:28;28.70;;;18.73;;
22490;SDS011;11412;50.802;4.350;2023-07-09T08:30:55;23.05;;;18.27;;
22490;SDS011;11412;50.802;4.350;2023-07-09T08:33:21;25.40;;;18.17;;
22490;SDS011;11412;50.802;4.350;2023-07-09T08:35:51;22.30;;;17.23;;
22490;SDS011;11412;50.802;4.350;2023-07-09T08:38:18;26.25;;;19.40;;
22490;SDS011;11412;50.802;4.350;2023-07-09T08:40:54;25.08;;;19.02;;
22490;SDS011;11412;50.802;4.350;2023-07-09T08:43:33;27.48;;;19.67;;
22490;SDS011;11412;50.802;4.350;2023-07-09T08:48:47;23.92;;;15.40;;
22490;SDS011;11412;50.802;4.350;2023-07-09T08:51:17;21.60;;;16.02;;
22490;SDS011;11412;50.802;4.350;2023-07-09T08:53:53;19.30;;;14.85;;
22490;SDS011;11412;50.802;4.350;2023-07-09T08:56:22;21.15;;;15.93;;
22490;SDS011;11412;50.802;4.350;2023-07-09T08:58:49;19.35;;;13.63;;
22490;SDS011;11412;50.802;4.350;2023-07-09T09:01:22;20.08;;;14.52;;
22490;SDS011;11412;50.802;4.350;2023-07-09T09:03:53;18.23;;;13.45;;
22490;SDS011;11412;50.802;4.350;2023-07-09T09:06:27;22.00;;;15.25;;
22490;SDS011;11412;50.802;4.350;2023-07-09T09:09:04;18.50;;;14.95;;
22490;SDS011;11412;50.802;4.350;2023-07-09T09:11:49;21.05;;;15.23;;
22490;SDS011;11412;50.802;4.350;2023-07-09T09:17:03;15.63;;;12.25;;
22490;SDS011;11412;50.802;4.350;2023-07-09T09:19:41;15.45;;;9.93;;
22490;SDS011;11412;50.802;4.350;2023-07-09T09:22:13;15.07;;;10.32;;
22490;SDS011;11412;50.802;4.350;2023-07-09T09:24:51;15.43;;;12.00;;
22490;SDS011;11412;50.802;4.350;2023-07-09T09:27:22;12.90;;;9.18;;
22490;SDS011;11412;50.802;4.350;2023-07-09T09:29:48;14.18;;;10.02;;
22490;SDS011;11412;50.802;4.350;2023-07-09T09:34:42;17.40;;;10.48;;
22490;SDS011;11412;50.802;4.350;2023-07-09T09:37:11;18.85;;;12.43;;
22490;SDS011;11412;50.802;4.350;2023-07-09T09:39:37;11.02;;;9.07;;
22490;SDS011;11412;50.802;4.350;2023-07-09T09:42:07;12.02;;;10.20;;
22490;SDS011;11412;50.802;4.350;2023-07-09T09:44:36;14.15;;;11.73;;
22490;SDS011;11412;50.802;4.350;2023-07-09T09:47:12;9.98;;;8.10;;
22490;SDS011;11412;50.802;4.350;2023-07-09T09:49:39;20.38;;;9.80;;
22490;SDS011;11412;50.802;4.350;2023-07-09T09:52:09;17.73;;;12.23;;
22490;SDS011;11412;50.802;4.350;2023-07-09T09:54:41;17.05;;;10.48;;
22490;SDS011;11412;50.802;4.350;2023-07-09T09:57:15;17.23;;;10.43;;
22490;SDS011;11412;50.802;4.350;2023-07-09T09:59:46;18.20;;;12.15;;
22490;SDS011;11412;50.802;4.350;2023-07-09T10:02:19;13.48;;;10.65;;
22490;SDS011;11412;50.802;4.350;2023-07-09T10:04:47;17.48;;;11.75;;
22490;SDS011;11412;50.802;4.350;2023-07-09T10:07:24;16.67;;;12.77;;
22490;SDS011;11412;50.802;4.350;2023-07-09T10:09:56;15.73;;;12.10;;
22490;SDS011;11412;50.802;4.350;2023-07-09T10:12:35;14.45;;;11.27;;
22490;SDS011;11412;50.802;4.350;2023-07-09T10:15:17;16.88;;;11.60;;
22490;SDS011;11412;50.802;4.350;2023-07-09T10:17:57;16.23;;;10.75;;
22490;SDS011;11412;50.802;4.350;2023-07-09T10:25:45;12.80;;;9.77;;
22490;SDS011;11412;50.802;4.350;2023-07-09T10:31:12;19.25;;;14.82;;
22490;SDS011;11412;50.802;4.350;2023-07-09T10:36:48;14.50;;;11.15;;
22490;SDS011;11412;50.802;4.350;2023-07-09T10:39:21;12.48;;;8.90;;
22490;SDS011;11412;50.802;4.350;2023-07-09T10:41:57;13.50;;;9.90;;
22490;SDS011;11412;50.802;4.350;2023-07-09T10:44:31;13.88;;;8.55;;
22490;SDS011;11412;50.802;4.350;2023-07-09T10:47:05;14.98;;;8.70;;
22490;SDS011;11412;50.802;4.350;2023-07-09T10:49:42;10.45;;;9.30;;
22490;SDS011;11412;50.802;4.350;2023-07-09T10:52:21;19.77;;;10.02;;
22490;SDS011;11412;50.802;4.350;2023-07-09T10:54:59;20.02;;;11.60;;
22490;SDS011;11412;50.802;4.350;2023-07-09T10:57:52;16.13;;;9.95;;
22490;SDS011;11412;50.802;4.350;2023-07-09T11:00:24;16.15;;;10.63;;
22490;SDS011;11412;50.802;4.350;2023-07-09T11:03:05;17.45;;;9.25;;
22490;SDS011;11412;50.802;4.350;2023-07-09T11:05:48;12.82;;;9.70;;
22490;SDS011;11412;50.802;4.350;2023-07-09T11:08:16;8.05;;;6.68;;
22490;SDS011;11412;50.802;4.350;2023-07-09T11:10:56;13.60;;;6.72;;
22490;SDS011;11412;50.802;4.350;2023-07-09T11:13:32;9.82;;;7.68;;
22490;SDS011;11412;50.802;4.350;2023-07-09T11:16:07;8.13;;;7.05;;
22490;SDS011;11412;50.802;4.350;2023-07-09T11:18:40;8.93;;;6.85;;
22490;SDS011;11412;50.802;4.350;2023-07-09T11:21:15;9.23;;;6.40;;
22490;SDS011;11412;50.802;4.350;2023-07-09T11:23:52;8.25;;;5.68;;
22490;SDS011;11412;50.802;4.350;2023-07-09T11:28:55;7.15;;;5.32;;
22490;SDS011;11412;50.802;4.350;2023-07-09T11:36:58;8.00;;;6.45;;
22490;SDS011;11412;50.802;4.350;2023-07-09T11:39:42;6.25;;;5.38;;
22490;SDS011;11412;50.802;4.350;2023-07-09T11:42:26;6.65;;;5.22;;
22490;SDS011;11412;50.802;4.350;2023-07-09T11:44:57;8.50;;;5.18;;
22490;SDS011;11412;50.802;4.350;2023-07-09T11:47:41;6.80;;;4.90;;
22490;SDS011;11412;50.802;4.350;2023-07-09T11:50:26;8.98;;;4.70;;
22490;SDS011;11412;50.802;4.350;2023-07-09T11:55:56;4.97;;;4.43;;
22490;SDS011;11412;50.802;4.350;2023-07-09T11:58:22;4.82;;;3.85;;
22490;SDS011;11412;50.802;4.350;2023-07-09T12:00:50;6.07;;;4.35;;
22490;SDS011;11412;50.802;4.350;2023-07-09T12:03:24;4.70;;;4.00;;
22490;SDS011;11412;50.802;4.350;2023-07-09T12:05:53;5.47;;;3.92;;
22490;SDS011;11412;50.802;4.350;2023-07-09T12:08:38;6.88;;;3.85;;
22490;SDS011;11412;50.802;4.350;2023-07-09T12:11:06;5.93;;;3.63;;
22490;SDS011;11412;50.802;4.350;2023-07-09T12:13:43;4.22;;;3.83;;
22490;SDS011;11412;50.802;4.350;2023-07-09T12:16:23;7.78;;;3.97;;
22490;SDS011;11412;50.802;4.350;2023-07-09T12:18:50;6.57;;;4.50;;
22490;SDS011;11412;50.802;4.350;2023-07-09T12:21:17;9.55;;;5.03;;
22490;SDS011;11412;50.802;4.350;2023-07-09T12:23:44;8.07;;;4.70;;
22490;SDS011;11412;50.802;4.350;2023-07-09T12:26:11;9.13;;;5.63;;
22490;SDS011;11412;50.802;4.350;2023-07-09T12:28:39;6.53;;;5.75;;
22490;SDS011;11412;50.802;4.350;2023-07-09T12:31:10;9.10;;;5.18;;
22490;SDS011;11412;50.802;4.350;2023-07-09T12:33:48;14.18;;;5.55;;
22490;SDS011;11412;50.802;4.350;2023-07-09T12:36:14;9.03;;;5.83;;
22490;SDS011;11412;50.802;4.350;2023-07-09T12:38:43;8.00;;;5.57;;
22490;SDS011;11412;50.802;4.350;2023-07-09T12:41:20;8.68;;;6.10;;
22490;SDS011;11412;50.802;4.350;2023-07-09T12:43:49;6.80;;;5.47;;
22490;SDS011;11412;50.802;4.350;2023-07-09T12:46:17;9.98;;;6.60;;
22490;SDS011;11412;50.802;4.350;2023-07-09T12:48:44;9.13;;;6.70;;
22490;SDS011;11412;50.802;4.350;2023-07-09T12:51:16;11.93;;;6.22;;
22490;SDS011;11412;50.802;4.350;2023-07-09T12:56:13;8.70;;;6.32;;
22490;SDS011;11412;50.802;4.350;2023-07-09T12:58:40;9.45;;;7.18;;
22490;SDS011;11412;50.802;4.350;2023-07-09T13:01:07;8.35;;;6.60;;
22490;SDS011;11412;50.802;4.350;2023-07-09T13:03:38;8.77;;;7.03;;
22490;SDS011;11412;50.802;4.350;2023-07-09T13:06:24;8.73;;;7.38;;
22490;SDS011;11412;50.802;4.350;2023-07-09T13:08:58;13.02;;;7.25;;
22490;SDS011;11412;50.802;4.350;2023-07-09T13:11:25;13.02;;;7.53;;
22490;SDS011;11412;50.802;4.350;2023-07-09T13:14:04;10.80;;;7.40;;
22490;SDS011;11412;50.802;4.350;2023-07-09T13:16:38;12.40;;;7.75;;
22490;SDS011;11412;50.802;4.350;2023-07-09T13:19:05;10.85;;;8.02;;
22490;SDS011;11412;50.802;4.350;2023-07-09T13:21:30;14.65;;;8.57;;
22490;SDS011;11412;50.802;4.350;2023-07-09T13:23:56;10.65;;;7.80;;
22490;SDS011;11412;50.802;4.350;2023-07-09T13:26:22;11.02;;;8.43;;
22490;SDS011;11412;50.802;4.350;2023-07-09T13:28:48;9.88;;;8.25;;
22490;SDS011;11412;50.802;4.350;2023-07-09T13:31:19;9.27;;;8.20;;
22490;SDS011;11412;50.802;4.350;2023-07-09T13:33:50;13.75;;;8.00;;
22490;SDS011;11412;50.802;4.350;2023-07-09T13:36:19;10.40;;;7.93;;
22490;SDS011;11412;50.802;4.350;2023-07-09T13:38:45;10.32;;;7.72;;
22490;SDS011;11412;50.802;4.350;2023-07-09T13:41:12;15.05;;;8.38;;
22490;SDS011;11412;50.802;4.350;2023-07-09T13:43:41;13.32;;;8.73;;
22490;SDS011;11412;50.802;4.350;2023-07-09T13:46:09;12.75;;;8.68;;
22490;SDS011;11412;50.802;4.350;2023-07-09T13:48:36;17.48;;;9.00;;
22490;SDS011;11412;50.802;4.350;2023-07-09T13:51:12;9.75;;;8.38;;
22490;SDS011;11412;50.802;4.350;2023-07-09T13:53:43;8.93;;;7.97;;
22490;SDS011;11412;50.802;4.350;2023-07-09T13:56:09;12.80;;;7.97;;
22490;SDS011;11412;50.802;4.350;2023-07-09T13:58:35;11.55;;;7.85;;
22490;SDS011;11412;50.802;4.350;2023-07-09T14:01:05;11.05;;;7.85;;
22490;SDS011;11412;50.802;4.350;2023-07-09T14:03:39;8.40;;;7.18;;
22490;SDS011;11412;50.802;4.350;2023-07-09T14:06:08;9.07;;;6.85;;
22490;SDS011;11412;50.802;4.350;2023-07-09T14:08:36;10.00;;;7.88;;
22490;SDS011;11412;50.802;4.350;2023-07-09T14:11:01;8.07;;;7.18;;
22490;SDS011;11412;50.802;4.350;2023-07-09T14:13:27;10.05;;;6.70;;
22490;SDS011;11412;50.802;4.350;2023-07-09T14:15:56;8.20;;;6.80;;
22490;SDS011;11412;50.802;4.350;2023-07-09T14:18:22;8.50;;;6.47;;
22490;SDS011;11412;50.802;4.350;2023-07-09T14:20:48;8.10;;;6.30;;
22490;SDS011;11412;50.802;4.350;2023-07-09T14:23:16;8.60;;;6.47;;
22490;SDS011;11412;50.802;4.350;2023-07-09T14:25:43;8.70;;;5.60;;
22490;SDS011;11412;50.802;4.350;2023-07-09T14:28:16;6.78;;;6.05;;
22490;SDS011;11412;50.802;4.350;2023-07-09T14:30:44;9.10;;;5.95;;
22490;SDS011;11412;50.802;4.350;2023-07-09T14:33:12;10.63;;;5.88;;
22490;SDS011;11412;50.802;4.350;2023-07-09T14:35:40;7.28;;;6.00;;
22490;SDS011;11412;50.802;4.350;2023-07-09T14:38:17;8.63;;;5.72;;
22490;SDS011;11412;50.802;4.350;2023-07-09T14:40:44;7.03;;;5.45;;
22490;SDS011;11412;50.802;4.350;2023-07-09T14:43:11;7.38;;;5.45;;
22490;SDS011;11412;50.802;4.350;2023-07-09T14:45:37;7.03;;;5.05;;
22490;SDS011;11412;50.802;4.350;2023-07-09T14:48:08;7.55;;;5.28;;
22490;SDS011;11412;50.802;4.350;2023-07-09T14:50:35;6.35;;;5.25;;
22490;SDS011;11412;50.802;4.350;2023-07-09T14:53:02;8.07;;;5.18;;
22490;SDS011;11412;50.802;4.350;2023-07-09T14:55:28;7.75;;;5.28;;
22490;SDS011;11412;50.802;4.350;2023-07-09T14:57:54;8.13;;;5.22;;
22490;SDS011;11412;50.802;4.350;2023-07-09T15:00:24;5.95;;;5.25;;
22490;SDS011;11412;50.802;4.350;2023-07-09T15:02:51;9.93;;;6.22;;
22490;SDS011;11412;50.802;4.350;2023-07-09T15:05:23;7.00;;;4.75;;
22490;SDS011;11412;50.802;4.350;2023-07-09T15:07:50;7.68;;;5.38;;
22490;SDS011;11412;50.802;4.350;2023-07-09T15:10:18;7.90;;;5.55;;
22490;SDS011;11412;50.802;4.350;2023-07-09T15:12:48;7.93;;;5.22;;
22490;SDS011;11412;50.802;4.350;2023-07-09T15:15:18;6.47;;;4.85;;
22490;SDS011;11412;50.802;4.350;2023-07-09T15:17:52;6.35;;;4.88;;
22490;SDS011;11412;50.802;4.350;2023-07-09T15:20:22;7.15;;;4.47;;
22490;SDS011;11412;50.802;4.350;2023-07-09T15:22:50;5.35;;;4.68;;
22490;SDS011;11412;50.802;4.350;2023-07-09T15:25:20;7.60;;;4.38;;
22490;SDS011;11412;50.802;4.350;2023-07-09T15:27:48;7.05;;;4.22;;
22490;SDS011;11412;50.802;4.350;2023-07-09T15:30:18;5.30;;;4.35;;